Rockdale, TX

2:34 PM CST on November 28, 2014 (GMT -0600)
Giddings | Change Station
CLOSE
Current Station
Airport
Location: Giddings,
Elevation: 486 ft
Nearby Weather Stations

Elev 486 ft 30.17 °N, 96.98 °W | Updated 19 minutes ago

Partly Cloudy
Partly Cloudy
71 °F
Feels Like 71 °F
N
15
Wind Variable Wind from SSW
Gusts 21 mph

Today
High -- | Low -- °F
--% Chance of Precip.
Yesterday
High -- | Low -- °F
Precip. -- in
7:05 AM 5:26 PM
Waxing Crescent, 43% visible
Pressure 30.20 in
Visibility 10.0 miles
Clouds Scattered Clouds 4300 ft
Dew Point 50 °F
Humidity 48%
Rainfall 0.00 in
Snow Depth Not available.
UV 3 out of 12
Pollen 4.90 out of 12
Air Quality Not available.
Flu Activity Not available.
METAR KGYB 282015Z AUTO 20013G18KT 10SM SCT043 22/10 A3020 RMK AO2 T02180102

More Conditions Fewer Conditions

Pressure 30.20 in
Visibility 10.0 miles
Clouds Scattered Clouds 4300 ft
Dew Point 50 °F
Humidity 48%
Rainfall 0.00 in
Snow Depth Not available.
UV 3 out of 12
Pollen 4.90 out of 12
Air Quality Not available.
Flu Activity Not available.
METAR KGYB 282015Z AUTO 20013G18KT 10SM SCT043 22/10 A3020 RMK AO2 T02180102

More Conditions Fewer Conditions

10-Day Weather Forecast

Almanac

Astronomy

Nov. 28, 2014 Rise Set
Actual Time
Civil Twilight
Nautical Twilight
Astronomical Twilight
Moon
Length of Visible Light
Length of Day
Tomorrow will be .
, % of the Moon is Illuminated

Today's Extremes

State Highs State Lows

Community

WunderPhotos

Upload Photos

1,774,274 photos uploaded!

WunderBlogs® & News

Nearby

Air Quality

  Air Quality AQ Index Pollutant
Not available.

Snow Depth

Station Depth Elevation

Earthquake Activity

City Distance Mag. Time & Date
Minimum magnitude displayed is 2.5.

Coastal Water Temperatures

Place Temperature

Nearby Weather Stations